Time;durP1;ratioP1;P1;durP2;ratioP2;P2;SDS_P1;SDS_P2;PMS_P1;PMS_P2;Temp;Humidity;BMP_temperature;BMP_pressure;BME280_temperature;BME280_humidity;BME280_pressure;Samples;Min_cycle;Max_cycle;Signal;HPM_P1;HPM_P2
2022/08/21 00:01:50;;;;;;;3.10;1.70;;;;;;;16.46;100.00;96449.25;5068021;28;20247;-79
2022/08/21 00:04:17;;;;;;;1.80;1.53;;;;;;;16.49;100.00;96446.84;5078285;28;20205;-79
2022/08/21 00:06:44;;;;;;;2.47;2.00;;;;;;;16.41;100.00;96457.44;5082376;28;20294;-79
2022/08/21 00:09:11;;;;;;;8.10;2.17;;;;;;;16.35;100.00;96447.56;5072212;28;20339;-79
2022/08/21 00:11:40;;;;;;;4.07;1.90;;;;;;;16.32;100.00;96448.09;5075324;28;20205;-79
2022/08/21 00:14:10;;;;;;;1.70;1.60;;;;;;;16.35;100.00;96455.72;5082842;28;20332;-79
2022/08/21 00:16:38;;;;;;;2.63;1.80;;;;;;;16.32;100.00;96437.22;5069784;28;20204;-79
2022/08/21 00:19:06;;;;;;;3.73;1.90;;;;;;;16.31;100.00;96439.09;5078652;28;20207;-79
2022/08/21 00:21:33;;;;;;;3.73;1.70;;;;;;;16.28;100.00;96436.91;5083946;28;20258;-79
2022/08/21 00:24:00;;;;;;;1.80;1.70;;;;;;;16.33;100.00;96439.69;5079690;28;20430;-78
2022/08/21 00:26:27;;;;;;;2.97;1.70;;;;;;;16.34;100.00;96438.56;5077248;28;20216;-79
2022/08/21 00:28:56;;;;;;;6.17;1.83;;;;;;;16.32;100.00;96432.56;5083945;28;20204;-79
2022/08/21 00:31:23;;;;;;;2.57;1.60;;;;;;;16.31;100.00;96433.66;5069139;28;20203;-79
2022/08/21 00:33:50;;;;;;;4.07;1.80;;;;;;;16.28;100.00;96436.91;5085931;28;20317;-79
2022/08/21 00:36:17;;;;;;;2.00;1.80;;;;;;;16.28;100.00;96435.00;5078723;28;20205;-79
2022/08/21 00:38:44;;;;;;;3.07;1.60;;;;;;;16.28;100.00;96434.19;5086044;28;20203;-79
2022/08/21 00:41:12;;;;;;;1.90;1.73;;;;;;;16.28;100.00;96428.72;5073903;28;20241;-79
2022/08/21 00:43:40;;;;;;;2.80;1.33;;;;;;;16.32;100.00;96431.75;5079606;28;20201;-79
2022/08/21 00:46:09;;;;;;;2.13;1.50;;;;;;;16.33;100.00;96426.03;5081980;28;20201;-79
2022/08/21 00:48:36;;;;;;;2.37;1.40;;;;;;;16.32;100.00;96420.84;5077993;28;20194;-78
2022/08/21 00:51:07;;;;;;;2.40;1.40;;;;;;;16.38;100.00;96430.69;5076324;28;20205;-79
2022/08/21 00:53:38;;;;;;;3.57;1.60;;;;;;;16.38;100.00;96428.78;5071857;28;20302;-79
2022/08/21 00:56:10;;;;;;;1.77;1.53;;;;;;;16.34;100.00;96419.47;5087998;28;20227;-78
2022/08/21 00:58:40;;;;;;;1.50;1.40;;;;;;;16.34;100.00;96427.66;5085099;28;20314;-79
2022/08/21 01:01:09;;;;;;;5.77;1.70;;;;;;;16.37;100.00;96429.88;5075328;28;20274;-79
2022/08/21 01:03:37;;;;;;;1.63;1.53;;;;;;;16.40;100.00;96431.25;5080143;28;20205;-79
2022/08/21 01:06:06;;;;;;;1.60;1.50;;;;;;;16.40;100.00;96423.06;5070953;28;20201;-79
2022/08/21 01:08:34;;;;;;;1.67;1.57;;;;;;;16.47;100.00;96424.47;5081261;28;20278;-79
2022/08/21 01:11:02;;;;;;;1.60;1.50;;;;;;;16.47;100.00;96435.38;5077494;28;20208;-79
2022/08/21 01:13:33;;;;;;;1.63;1.53;;;;;;;16.49;100.00;96432.38;5083091;28;20244;-79
2022/08/21 01:16:03;;;;;;;3.83;1.50;;;;;;;16.46;100.00;96432.91;5074201;28;20256;-79
2022/08/21 01:18:32;;;;;;;1.77;1.50;;;;;;;16.47;100.00;96434.56;5076014;28;20204;-79
2022/08/21 01:21:07;;;;;;;2.07;1.67;;;;;;;16.44;100.00;96430.44;5079015;28;20197;-79
2022/08/21 01:23:37;;;;;;;4.77;1.70;;;;;;;16.43;100.00;96431.53;5075951;28;20209;-79
2022/08/21 01:26:05;;;;;;;2.40;1.50;;;;;;;16.39;100.00;96432.34;5076940;28;20259;-79
2022/08/21 01:28:35;;;;;;;2.50;1.50;;;;;;;16.33;100.00;96434.22;5075502;28;20200;-79
2022/08/21 01:31:06;;;;;;;3.17;1.80;;;;;;;16.32;100.00;96424.41;5089051;28;20208;-79
2022/08/21 01:33:33;;;;;;;2.60;1.40;;;;;;;16.31;100.00;96420.03;5085926;28;20232;-79
2022/08/21 01:36:00;;;;;;;3.73;1.60;;;;;;;16.32;100.00;96415.41;5080042;28;20216;-79
2022/08/21 01:38:29;;;;;;;2.30;1.70;;;;;;;16.23;100.00;96406.91;5089752;28;20200;-79
2022/08/21 01:40:56;;;;;;;1.67;1.50;;;;;;;16.25;100.00;96412.91;5085525;28;20262;-79
2022/08/21 01:43:24;;;;;;;3.93;1.80;;;;;;;16.19;100.00;96417.50;5082928;28;20189;-79
2022/08/21 01:45:51;;;;;;;2.70;1.70;;;;;;;16.19;100.00;96408.50;5088657;28;20248;-79
2022/08/21 01:48:18;;;;;;;3.17;1.63;;;;;;;16.15;100.00;96399.25;5079736;28;20296;-79
2022/08/21 01:50:45;;;;;;;2.27;1.40;;;;;;;16.08;100.00;96401.34;5086689;28;20209;-79
2022/08/21 01:53:13;;;;;;;1.63;1.53;;;;;;;16.04;100.00;96394.81;5081439;28;20225;-79
2022/08/21 01:55:41;;;;;;;3.43;1.50;;;;;;;16.04;100.00;96394.81;5080376;28;20217;-79
2022/08/21 01:58:09;;;;;;;3.27;1.50;;;;;;;15.99;100.00;96392.06;5084796;28;20212;-79
2022/08/21 02:00:36;;;;;;;5.33;1.80;;;;;;;15.93;100.00;96387.66;5077942;28;20200;-79
2022/08/21 02:03:04;;;;;;;3.97;1.50;;;;;;;15.89;100.00;96395.56;5082156;28;20216;-79
2022/08/21 02:05:32;;;;;;;4.83;1.60;;;;;;;15.85;100.00;96381.63;5084597;28;20262;-79
2022/08/21 02:07:59;;;;;;;2.73;1.60;;;;;;;15.88;100.00;96381.13;5083467;28;20630;-79
2022/08/21 02:10:29;;;;;;;2.63;1.50;;;;;;;15.94;100.00;96383.84;5085662;28;20212;-79
2022/08/21 02:12:59;;;;;;;2.77;1.83;;;;;;;15.92;100.00;96380.56;5083478;28;20250;-79
2022/08/21 02:15:27;;;;;;;1.97;1.53;;;;;;;15.91;100.00;96377.03;5083567;28;20241;-79
2022/08/21 02:17:57;;;;;;;2.87;1.50;;;;;;;15.80;100.00;96368.00;5084901;28;20229;-79
2022/08/21 02:20:28;;;;;;;4.63;1.87;;;;;;;15.76;100.00;96375.03;5087836;28;20251;-78
2022/08/21 02:22:55;;;;;;;3.10;1.60;;;;;;;15.75;100.00;96375.28;5086650;28;20197;-79
2022/08/21 02:25:24;;;;;;;4.10;1.80;;;;;;;15.74;100.00;96370.91;5084896;28;20201;-79
2022/08/21 02:27:52;;;;;;;1.47;1.30;;;;;;;15.75;100.00;96367.94;5085020;28;20688;-79
2022/08/21 02:30:23;;;;;;;2.80;1.50;;;;;;;15.80;100.00;96361.72;5074954;28;20220;-79
2022/08/21 02:32:51;;;;;;;4.93;1.80;;;;;;;15.75;100.00;96362.50;5082845;28;20217;-79
2022/08/21 02:35:19;;;;;;;3.70;1.60;;;;;;;15.69;100.00;96360.84;5085237;28;20251;-79
2022/08/21 02:37:50;;;;;;;1.73;1.37;;;;;;;15.69;100.00;96352.66;5070635;28;20209;-79
2022/08/21 02:40:19;;;;;;;2.93;1.33;;;;;;;15.66;100.00;96353.19;5078929;28;20201;-79
2022/08/21 02:42:47;;;;;;;1.50;1.40;;;;;;;15.66;100.00;96352.34;5085424;28;20223;-79
2022/08/21 02:45:15;;;;;;;6.00;1.70;;;;;;;15.65;100.00;96354.25;5081748;28;20197;-79
2022/08/21 02:47:48;;;;;;;2.03;1.50;;;;;;;15.67;100.00;96357.53;5080280;28;20210;-79
2022/08/21 02:50:19;;;;;;;1.87;1.60;;;;;;;15.68;100.00;96347.47;5092145;28;20228;-79
2022/08/21 02:52:46;;;;;;;1.50;1.40;;;;;;;15.67;100.00;96351.28;5086900;28;20217;-79
2022/08/21 02:55:13;;;;;;;1.40;1.30;;;;;;;15.71;100.00;96344.25;5083826;28;20211;-79
2022/08/21 02:57:41;;;;;;;5.00;1.60;;;;;;;15.66;100.00;96347.72;5087993;28;20291;-79
2022/08/21 03:00:10;;;;;;;2.73;1.20;;;;;;;15.59;100.00;96347.16;5085361;28;20207;-79
2022/08/21 03:02:37;;;;;;;1.43;1.33;;;;;;;15.55;100.00;96346.03;5078113;28;20197;-79
2022/08/21 03:05:07;;;;;;;1.60;1.50;;;;;;;15.48;100.00;96346.22;5081148;28;20201;-79
2022/08/21 03:07:35;;;;;;;3.10;1.40;;;;;;;15.45;100.00;96348.66;5090209;28;20254;-79
2022/08/21 03:10:02;;;;;;;2.00;1.30;;;;;;;15.48;100.00;96345.44;5094893;28;20200;-79
2022/08/21 03:12:29;;;;;;;4.00;1.50;;;;;;;15.46;100.00;96347.59;5077137;28;20212;-79
2022/08/21 03:14:57;;;;;;;2.33;1.63;;;;;;;15.41;100.00;96339.34;5084858;28;20304;-79
2022/08/21 03:17:24;;;;;;;3.53;1.30;;;;;;;15.43;100.00;96334.50;5074981;28;20274;-79
2022/08/21 03:19:51;;;;;;;1.57;1.47;;;;;;;15.42;100.00;96330.94;5076728;28;20289;-79
2022/08/21 03:22:19;;;;;;;1.87;1.47;;;;;;;15.42;100.00;96324.69;5089824;28;20276;-79
2022/08/21 03:24:46;;;;;;;4.70;1.53;;;;;;;15.44;100.00;96334.22;5082130;28;20224;-79
2022/08/21 03:27:14;;;;;;;6.90;1.50;;;;;;;15.41;100.00;96332.03;5087203;28;20209;-78
2022/08/21 03:29:41;;;;;;;2.97;1.37;;;;;;;15.39;100.00;96326.03;5074530;28;20276;-79
2022/08/21 03:32:09;;;;;;;2.47;1.60;;;;;;;15.41;100.00;96328.47;5073564;28;20213;-79
2022/08/21 03:34:36;;;;;;;4.40;1.40;;;;;;;15.41;100.00;96331.19;5083605;28;20295;-78
2022/08/21 03:37:04;;;;;;;1.47;1.37;;;;;;;15.35;100.00;96324.09;5076202;28;20250;-78
2022/08/21 03:39:32;;;;;;;3.90;1.30;;;;;;;15.40;100.00;96332.28;5079704;28;20219;-79
2022/08/21 03:42:00;;;;;;;1.23;1.10;;;;;;;15.40;100.00;96326.84;5088357;28;20197;-79
2022/08/21 03:44:28;;;;;;;2.73;1.10;;;;;;;15.30;100.00;96318.63;5076295;28;20208;-79
2022/08/21 03:46:55;;;;;;;1.93;1.37;;;;;;;15.26;100.00;96320.22;5077574;28;20426;-79
2022/08/21 03:49:22;;;;;;;3.97;1.30;;;;;;;15.27;100.00;96328.13;5094642;28;20200;-79
2022/08/21 03:51:50;;;;;;;3.43;1.30;;;;;;;15.24;100.00;96323.19;5082345;28;20215;-78
2022/08/21 03:54:17;;;;;;;1.33;1.23;;;;;;;15.21;100.00;96325.63;5081867;28;20225;-79
2022/08/21 03:56:45;;;;;;;1.83;1.37;;;;;;;15.20;100.00;96321.25;5085279;28;20220;-79
2022/08/21 03:59:13;;;;;;;1.53;1.13;;;;;;;15.19;100.00;96330.50;5072034;28;20211;-79
2022/08/21 04:01:40;;;;;;;4.47;1.40;;;;;;;15.20;100.00;96324.81;5079935;28;20207;-79
2022/08/21 04:04:07;;;;;;;2.03;1.20;;;;;;;15.16;100.00;96334.53;5079568;28;20254;-79
2022/08/21 04:06:34;;;;;;;2.17;1.30;;;;;;;15.15;100.00;96331.00;5077771;28;20209;-79
2022/08/21 04:09:01;;;;;;;1.40;1.30;;;;;;;15.12;100.00;96336.97;5082179;28;20207;-79
2022/08/21 04:11:28;;;;;;;3.13;1.40;;;;;;;15.12;100.00;96347.84;5079321;28;20201;-79
2022/08/21 04:13:57;;;;;;;1.70;1.40;;;;;;;15.05;100.00;96336.38;5070369;28;20225;-78
2022/08/21 04:16:24;;;;;;;1.80;1.60;;;;;;;15.07;100.00;96339.63;5079301;28;20229;-79
2022/08/21 04:18:51;;;;;;;2.93;1.60;;;;;;;15.08;100.00;96337.75;5079750;28;20240;-79
2022/08/21 04:21:18;;;;;;;2.70;1.50;;;;;;;15.05;100.00;96335.56;5079846;28;20205;-79
2022/08/21 04:23:45;;;;;;;4.43;3.20;;;;;;;15.02;100.00;96346.94;5085724;28;20189;-78
2022/08/21 04:26:12;;;;;;;2.13;1.50;;;;;;;15.01;100.00;96353.44;5085020;28;20197;-79
2022/08/21 04:28:39;;;;;;;6.33;1.67;;;;;;;14.95;100.00;96349.06;5086107;28;20197;-78
2022/08/21 04:31:08;;;;;;;5.90;1.60;;;;;;;14.93;100.00;96349.31;5078032;28;20264;-79
2022/08/21 04:33:35;;;;;;;4.63;2.10;;;;;;;14.88;100.00;96360.16;5078438;28;20229;-79
2022/08/21 04:36:03;;;;;;;2.90;1.50;;;;;;;14.77;100.00;96358.38;5070769;28;20232;-79
2022/08/21 04:38:31;;;;;;;2.77;1.63;;;;;;;14.72;100.00;96364.56;5087508;28;20201;-78
2022/08/21 04:40:58;;;;;;;4.23;1.63;;;;;;;14.75;100.00;96368.69;5089747;28;20292;-79
2022/08/21 04:43:25;;;;;;;3.63;1.47;;;;;;;14.76;100.00;96370.34;5086155;28;20213;-79
2022/08/21 04:45:54;;;;;;;1.67;1.40;;;;;;;14.76;100.00;96368.44;5078111;28;20251;-79
2022/08/21 04:48:24;;;;;;;1.37;1.27;;;;;;;14.73;100.00;96368.13;5078327;28;20262;-79
2022/08/21 04:50:55;;;;;;;6.27;2.30;;;;;;;14.70;100.00;96371.38;5085909;28;20211;-79
2022/08/21 04:53:27;;;;;;;5.80;1.50;;;;;;;14.72;100.00;96378.16;5085397;28;20229;-79
2022/08/21 04:55:56;;;;;;;1.87;1.20;;;;;;;14.72;100.00;96382.78;5091737;28;20288;-79
2022/08/21 04:58:27;;;;;;;1.83;1.30;;;;;;;14.72;100.00;96380.06;5083641;28;20205;-79
2022/08/21 05:00:56;;;;;;;1.30;1.20;;;;;;;14.74;100.00;96389.63;5076166;28;20319;-79
2022/08/21 05:03:25;;;;;;;1.63;1.20;;;;;;;14.78;100.00;96379.06;5075591;28;20198;-79
2022/08/21 05:05:52;;;;;;;1.40;1.30;;;;;;;14.76;100.00;96381.22;5090771;28;20303;-78
2022/08/21 05:08:23;;;;;;;2.47;1.80;;;;;;;14.67;100.00;96385.47;5083685;28;20193;-79
2022/08/21 05:10:50;;;;;;;3.03;1.37;;;;;;;14.65;100.00;96391.16;5079970;28;20189;-79
2022/08/21 05:13:17;;;;;;;4.90;1.70;;;;;;;14.71;100.00;96386.59;5086881;28;20325;-79
2022/08/21 05:15:44;;;;;;;1.40;1.30;;;;;;;14.74;100.00;96397.75;5083032;28;20243;-79
2022/08/21 05:18:11;;;;;;;3.20;1.70;;;;;;;14.74;100.00;96392.34;5083801;28;20212;-79
2022/08/21 05:20:40;;;;;;;2.10;1.80;;;;;;;14.69;100.00;96394.19;5085535;28;20204;-79
2022/08/21 05:23:09;;;;;;;3.20;1.60;;;;;;;14.68;100.00;96395.25;5094035;28;20200;-79
2022/08/21 05:25:37;;;;;;;2.97;1.43;;;;;;;14.69;100.00;96396.91;5081117;28;20201;-79
2022/08/21 05:28:05;;;;;;;3.37;1.50;;;;;;;14.69;100.00;96396.91;5081493;28;20250;-79
2022/08/21 05:30:32;;;;;;;1.53;1.33;;;;;;;14.71;100.00;96397.47;5097057;28;20210;-79
2022/08/21 05:33:01;;;;;;;3.00;1.60;;;;;;;14.68;100.00;96400.69;5075549;28;20225;-79
2022/08/21 05:35:29;;;;;;;2.43;1.50;;;;;;;14.65;100.00;96395.75;5075747;28;20227;-79
2022/08/21 05:37:58;;;;;;;1.87;1.63;;;;;;;14.61;100.00;96403.63;5099876;28;20228;-79
2022/08/21 05:40:25;;;;;;;4.87;1.63;;;;;;;14.59;100.00;96399.50;5075360;28;20223;-79
2022/08/21 05:42:55;;;;;;;2.03;1.70;;;;;;;14.61;100.00;96400.91;5082899;28;20209;-79
2022/08/21 05:45:22;;;;;;;1.70;1.57;;;;;;;14.60;100.00;96393.00;5084939;28;20205;-79
2022/08/21 05:47:49;;;;;;;2.30;1.57;;;;;;;14.62;100.00;96397.09;5087454;28;20212;-79
2022/08/21 05:50:16;;;;;;;2.70;1.37;;;;;;;14.54;100.00;96394.84;5081748;28;20205;-78
2022/08/21 05:52:43;;;;;;;3.47;1.30;;;;;;;14.52;100.00;96390.72;5085217;28;20209;-79
2022/08/21 05:55:12;;;;;;;3.47;1.80;;;;;;;14.49;100.00;96399.38;5084367;28;20233;-79
2022/08/21 05:57:40;;;;;;;4.23;2.30;;;;;;;14.48;100.00;96389.56;5081460;28;20225;-78
2022/08/21 06:00:09;;;;;;;4.43;1.70;;;;;;;14.53;100.00;96397.81;5084596;28;20204;-79
2022/08/21 06:02:40;;;;;;;2.47;1.60;;;;;;;14.52;100.00;96386.13;5084339;28;20209;-79
2022/08/21 06:05:07;;;;;;;2.93;1.70;;;;;;;14.46;100.00;96380.88;5083476;28;20227;-79
2022/08/21 06:07:35;;;;;;;2.87;1.70;;;;;;;14.35;100.00;96379.91;5089535;28;20204;-78
2022/08/21 06:10:03;;;;;;;4.10;2.07;;;;;;;14.37;100.00;96381.25;5081622;28;20217;-78
2022/08/21 06:12:31;;;;;;;2.43;1.50;;;;;;;14.40;100.00;96371.81;5079528;28;20202;-79
2022/08/21 06:14:58;;;;;;;2.10;1.50;;;;;;;14.45;100.00;96373.81;5087713;28;20352;-79
2022/08/21 06:17:25;;;;;;;7.17;1.90;;;;;;;14.46;100.00;96370.00;5083641;28;20193;-79
2022/08/21 06:19:53;;;;;;;3.17;1.57;;;;;;;14.52;100.00;96369.81;5081673;28;20292;-79
2022/08/21 06:22:20;;;;;;;3.90;1.57;;;;;;;14.61;100.00;96368.28;5081385;28;20230;-79
2022/08/21 06:24:49;;;;;;;2.97;1.43;;;;;;;14.64;100.00;96372.38;5086562;28;20201;-79
2022/08/21 06:27:19;;;;;;;1.50;1.40;;;;;;;14.64;100.00;96361.50;5075370;28;20219;-79
2022/08/21 06:29:47;;;;;;;4.77;1.63;;;;;;;14.62;100.00;96361.78;5071322;28;20225;-78
2022/08/21 06:32:14;;;;;;;1.43;1.20;;;;;;;14.67;100.00;96352.84;5085537;28;20205;-79
2022/08/21 06:34:42;;;;;;;2.43;1.57;;;;;;;14.70;100.00;96353.16;5074203;28;20224;-78
2022/08/21 06:37:10;;;;;;;2.20;1.90;;;;;;;14.77;100.00;96342.09;5077057;28;20236;-79
2022/08/21 06:39:37;;;;;;;1.97;1.50;;;;;;;14.76;100.00;96341.25;5086180;28;20201;-79
2022/08/21 06:42:05;;;;;;;1.77;1.63;;;;;;;14.77;100.00;96342.09;5087255;28;20213;-79
2022/08/21 06:44:33;;;;;;;2.13;1.40;;;;;;;14.80;100.00;96327.16;5074411;28;20210;-78
2022/08/21 06:47:02;;;;;;;4.30;1.50;;;;;;;14.87;100.00;96336.75;5090028;28;20300;-79
2022/08/21 06:49:32;;;;;;;1.77;1.30;;;;;;;14.85;100.00;96330.75;5075311;28;20209;-77
2022/08/21 06:51:59;;;;;;;2.60;1.37;;;;;;;14.88;100.00;96343.84;5081820;28;20227;-78
2022/08/21 06:54:26;;;;;;;9.93;1.50;;;;;;;14.88;100.00;96335.69;5081292;28;20210;-77
2022/08/21 06:56:53;;;;;;;1.97;1.30;;;;;;;14.95;100.00;96336.28;5071832;28;20252;-78
2022/08/21 06:59:20;;;;;;;3.70;1.40;;;;;;;14.99;100.00;96336.56;5076628;28;20193;-78
2022/08/21 07:01:47;;;;;;;1.67;1.40;;;;;;;15.02;100.00;96326.00;5096954;28;20272;-78
2022/08/21 07:04:17;;;;;;;4.00;1.40;;;;;;;15.06;100.00;96327.13;5077061;28;20208;-79
2022/08/21 07:06:44;;;;;;;3.97;1.90;;;;;;;15.09;100.00;96336.66;5080697;28;20302;-77
2022/08/21 07:09:11;;;;;;;3.23;2.33;;;;;;;15.11;100.00;96345.38;5083409;28;20209;-78
2022/08/21 07:11:39;;;;;;;3.10;1.77;;;;;;;15.06;100.00;96338.00;5087382;28;20220;-78
2022/08/21 07:14:06;;;;;;;3.50;1.60;;;;;;;15.09;100.00;96340.19;5077651;28;20308;-79
2022/08/21 07:16:33;;;;;;;1.90;1.50;;;;;;;15.05;100.00;96333.66;5088230;28;20283;-77
2022/08/21 07:19:01;;;;;;;1.50;1.40;;;;;;;15.09;100.00;96329.31;5079594;28;20239;-78
2022/08/21 07:21:29;;;;;;;2.10;1.70;;;;;;;15.12;100.00;96331.53;5083809;28;20237;-78
2022/08/21 07:23:56;;;;;;;2.40;1.30;;;;;;;15.13;100.00;96343.25;5095467;28;20197;-79
2022/08/21 07:26:25;;;;;;;1.73;1.50;;;;;;;15.17;100.00;96340.81;5083290;28;20205;-77
2022/08/21 07:28:53;;;;;;;1.93;1.57;;;;;;;15.19;100.00;96335.94;5082057;28;20320;-77
2022/08/21 07:31:23;;;;;;;1.77;1.30;;;;;;;15.22;100.00;96329.97;5085744;28;20201;-77
2022/08/21 07:33:51;;;;;;;3.20;1.50;;;;;;;15.24;100.00;96331.34;5078616;28;20197;-77
2022/08/21 07:36:18;;;;;;;4.63;1.70;;;;;;;15.29;100.00;96330.59;5080507;28;20259;-74
2022/08/21 07:38:46;;;;;;;1.30;1.10;;;;;;;15.35;100.00;96329.53;5080971;28;20208;-75
2022/08/21 07:41:16;;;;;;;1.30;1.07;;;;;;;15.40;100.00;96326.84;5077034;28;20205;-75
2022/08/21 07:43:44;;;;;;;1.67;1.20;;;;;;;15.44;100.00;96325.25;5088365;28;20200;-75
2022/08/21 07:46:12;;;;;;;1.73;1.20;;;;;;;15.46;100.00;96315.75;5078504;28;20201;-76
2022/08/21 07:48:39;;;;;;;3.33;1.40;;;;;;;15.55;100.00;96318.84;5090239;28;20266;-77
2022/08/21 07:51:12;;;;;;;2.47;1.40;;;;;;;15.65;100.00;96318.88;5076991;28;20204;-76
2022/08/21 07:53:40;;;;;;;3.83;1.40;;;;;;;15.96;100.00;96317.16;5082010;28;20208;-77
2022/08/21 07:56:10;;;;;;;1.67;1.27;;;;;;;16.35;100.00;96314.84;5082974;28;20228;-76
2022/08/21 07:58:37;;;;;;;2.13;1.20;;;;;;;16.77;100.00;96322.09;5082193;28;20299;-78
2022/08/21 08:01:06;;;;;;;3.20;1.23;;;;;;;17.16;100.00;96320.50;5091132;28;20209;-76
2022/08/21 08:03:33;;;;;;;1.23;1.10;;;;;;;17.50;100.00;96319.94;5080131;28;20214;-76
2022/08/21 08:06:00;;;;;;;1.60;1.10;;;;;;;17.73;100.00;96327.59;5091464;28;20220;-76
2022/08/21 08:08:28;;;;;;;1.70;0.93;;;;;;;17.95;100.00;96319.09;5082000;28;20201;-77
2022/08/21 08:10:58;;;;;;;2.93;1.40;;;;;;;18.30;100.00;96320.84;5105001;27;20217;-76
2022/08/21 08:13:27;;;;;;;1.33;1.23;;;;;;;18.59;100.00;96324.59;5084860;28;20212;-76
2022/08/21 08:15:54;;;;;;;1.27;1.17;;;;;;;18.87;100.00;96326.63;5075117;28;20336;-76
2022/08/21 08:18:21;;;;;;;1.27;1.10;;;;;;;18.94;100.00;96322.75;5080562;28;20202;-76
2022/08/21 08:20:51;;;;;;;1.30;1.20;;;;;;;18.88;100.00;96325.50;5085296;28;20229;-76
2022/08/21 08:23:18;;;;;;;1.57;1.23;;;;;;;18.96;100.00;96318.63;5077224;28;20228;-76
2022/08/21 08:25:45;;;;;;;4.72;1.20;;;;;;;19.30;100.00;96318.66;5074293;28;20197;-76
2022/08/21 08:28:12;;;;;;;1.38;1.20;;;;;;;19.50;100.00;96323.97;5069225;28;20213;-76
2022/08/21 08:30:41;;;;;;;1.95;1.10;;;;;;;20.02;100.00;96319.63;5081030;28;20205;-76
2022/08/21 08:33:08;;;;;;;1.88;1.50;;;;;;;20.32;100.00;96316.53;5085078;27;20206;-76
2022/08/21 08:35:36;;;;;;;1.75;1.17;;;;;;;20.41;100.00;96308.50;5068594;28;20228;-76
2022/08/21 08:38:03;;;;;;;2.55;1.10;;;;;;;20.66;100.00;96308.19;5084342;28;20209;-76
2022/08/21 08:40:39;;;;;;;2.38;1.30;;;;;;;20.74;100.00;96306.69;5074058;28;20223;-77
2022/08/21 08:43:07;;;;;;;2.08;1.00;;;;;;;20.96;100.00;96303.34;5078035;28;20209;-76
2022/08/21 08:45:38;;;;;;;1.38;1.20;;;;;;;21.01;100.00;96301.34;5088224;28;20207;-76
2022/08/21 08:48:14;;;;;;;1.35;1.23;;;;;;;21.08;100.00;96309.22;5092346;28;20209;-76
2022/08/21 08:50:46;;;;;;;1.40;1.30;;;;;;;21.35;100.00;96314.84;5078121;28;20295;-76
2022/08/21 08:53:17;;;;;;;1.25;1.15;;;;;;;21.32;100.00;96306.41;5086216;28;20197;-76
2022/08/21 08:55:46;;;;;;;4.13;1.48;;;;;;;21.33;100.00;96294.31;5071935;28;20236;-76
2022/08/21 08:58:21;;;;;;;3.95;1.42;;;;;;;21.58;100.00;96301.28;5070440;28;20240;-76
2022/08/21 09:00:51;;;;;;;2.92;1.35;;;;;;;21.77;100.00;96291.06;5081061;28;20209;-76
2022/08/21 09:03:22;;;;;;;1.83;1.20;;;;;;;21.80;100.00;96299.50;5082230;28;20308;-76
2022/08/21 09:05:56;;;;;;;2.88;1.50;;;;;;;21.79;100.00;96289.63;5073433;28;20200;-76
2022/08/21 09:08:39;;;;;;;1.40;1.30;;;;;;;21.83;97.35;96282.41;5072319;28;20229;-76
2022/08/21 09:11:16;;;;;;;1.40;1.30;;;;;;;21.88;99.73;96285.06;5076375;28;20246;-77
2022/08/21 09:13:56;;;;;;;4.35;1.35;;;;;;;22.07;99.85;96282.25;5077773;28;20201;-76
2022/08/21 09:16:36;;;;;;;1.35;1.25;;;;;;;22.31;98.49;96286.72;5072490;28;20240;-77
2022/08/21 09:19:28;;;;;;;2.17;1.40;;;;;;;22.44;96.65;96275.72;5078160;28;20209;-77
2022/08/21 09:22:04;;;;;;;1.52;1.40;;;;;;;22.39;93.78;96283.25;5084693;28;20208;-77
2022/08/21 09:24:39;;;;;;;2.35;1.10;;;;;;;22.34;94.11;96275.94;5082499;28;20198;-77
2022/08/21 09:27:10;;;;;;;1.33;1.23;;;;;;;22.39;92.14;96273.06;5090429;28;20224;-77
2022/08/21 09:29:40;;;;;;;3.70;1.63;;;;;;;22.41;92.79;96265.34;5088097;28;20262;-77
2022/08/21 09:32:14;;;;;;;2.85;1.35;;;;;;;22.53;95.39;96265.63;5079181;28;20216;-77
2022/08/21 09:34:43;;;;;;;1.30;1.20;;;;;;;22.60;93.79;96266.03;5074761;28;20296;-77
2022/08/21 09:37:18;;;;;;;1.58;1.38;;;;;;;22.67;95.41;96264.78;5081053;28;20198;-77
2022/08/21 09:39:45;;;;;;;2.97;2.10;;;;;;;22.87;95.53;96256.91;5073339;28;20210;-77
2022/08/21 09:42:22;;;;;;;2.45;2.25;;;;;;;22.83;93.25;96257.84;5100865;28;20212;-77
2022/08/21 09:44:49;;;;;;;1.30;1.20;;;;;;;22.85;92.10;96253.66;5068341;28;20201;-77
2022/08/21 09:47:20;;;;;;;2.20;1.38;;;;;;;23.01;93.60;96254.91;5081877;28;20197;-77
2022/08/21 09:49:49;;;;;;;3.63;1.48;;;;;;;23.00;93.73;96255.22;5085350;28;20241;-77
2022/08/21 09:52:21;;;;;;;1.40;1.30;;;;;;;23.05;94.15;96246.06;5078156;28;20198;-76
2022/08/21 09:54:53;;;;;;;1.48;1.30;;;;;;;23.20;94.87;96243.72;5077656;28;20201;-76
2022/08/21 09:57:45;;;;;;;2.95;1.30;;;;;;;23.33;91.64;96251.09;5081676;28;20266;-77
2022/08/21 10:00:25;;;;;;;1.60;1.50;;;;;;;23.47;91.59;96242.78;5072985;28;20212;-76
2022/08/21 10:02:52;;;;;;;1.60;1.50;;;;;;;23.62;89.90;96238.84;5085178;28;20228;-76
2022/08/21 10:05:26;;;;;;;2.92;1.50;;;;;;;23.62;90.25;96239.66;5086364;28;20201;-76
2022/08/21 10:07:54;;;;;;;1.50;1.40;;;;;;;23.68;88.77;96237.56;5079820;28;20250;-76
2022/08/21 10:10:23;;;;;;;1.33;1.23;;;;;;;23.60;88.92;96233.63;5078397;28;20200;-77
2022/08/21 10:12:59;;;;;;;3.30;1.42;;;;;;;23.60;89.79;96230.88;5084030;28;20345;-76
2022/08/21 10:15:41;;;;;;;1.48;1.38;;;;;;;23.70;89.43;96230.59;5081726;28;20232;-76
2022/08/21 10:18:17;;;;;;;1.40;1.30;;;;;;;23.76;88.07;96228.53;5072274;28;20267;-77
2022/08/21 10:20:51;;;;;;;1.65;1.55;;;;;;;24.00;86.50;96228.94;5082549;28;20212;-77
2022/08/21 10:23:35;;;;;;;1.40;1.30;;;;;;;23.93;85.62;96220.31;5078936;28;20208;-77
2022/08/21 10:26:12;;;;;;;1.50;1.40;;;;;;;23.81;87.55;96217.38;5079366;28;20236;-77
2022/08/21 10:28:48;;;;;;;1.50;1.30;;;;;;;23.80;87.71;96212.97;5087110;28;20235;-77
2022/08/21 10:31:25;;;;;;;1.75;1.50;;;;;;;23.98;87.86;96220.19;5078495;28;20212;-77
2022/08/21 10:34:08;;;;;;;1.85;1.48;;;;;;;24.20;88.42;96213.75;5087484;28;20226;-77
2022/08/21 10:36:44;;;;;;;1.67;1.58;;;;;;;24.40;86.38;96215.97;5084286;28;20220;-77
2022/08/21 10:39:21;;;;;;;3.03;1.92;;;;;;;24.42;85.53;96215.63;5072460;28;20197;-77
2022/08/21 10:42:09;;;;;;;1.58;1.40;;;;;;;24.53;85.80;96214.19;5087324;28;20239;-77
2022/08/21 10:44:48;;;;;;;3.15;1.52;;;;;;;24.65;84.39;96203.34;5075756;28;20209;-77
2022/08/21 10:47:19;;;;;;;1.60;1.50;;;;;;;24.69;83.99;96196.00;5073246;28;20205;-77
2022/08/21 10:49:54;;;;;;;1.45;1.35;;;;;;;24.78;84.70;96199.59;5092552;28;20212;-77
2022/08/21 10:52:37;;;;;;;1.40;1.30;;;;;;;24.83;83.75;96201.41;5084298;28;20239;-77
2022/08/21 10:55:11;;;;;;;2.80;1.38;;;;;;;24.97;83.58;96196.53;5075681;28;20204;-77
2022/08/21 10:57:48;;;;;;;1.38;1.27;;;;;;;25.15;82.01;96197.34;5082130;28;20232;-77
2022/08/21 11:00:19;;;;;;;1.60;1.48;;;;;;;25.16;82.77;96196.19;5082172;28;20278;-77
2022/08/21 11:02:54;;;;;;;1.50;1.38;;;;;;;25.14;83.73;96185.47;5085369;28;20216;-77
2022/08/21 11:05:28;;;;;;;3.10;1.60;;;;;;;25.26;85.43;96171.00;5084607;28;20221;-77
2022/08/21 11:08:03;;;;;;;1.55;1.45;;;;;;;25.29;85.11;96175.03;5081531;28;20205;-77
2022/08/21 11:10:37;;;;;;;2.00;1.40;;;;;;;25.40;81.06;96166.06;5072331;28;20219;-77
2022/08/21 11:13:12;;;;;;;1.60;1.30;;;;;;;25.42;80.83;96165.75;5088153;28;20216;-77
2022/08/21 11:15:49;;;;;;;2.17;1.30;;;;;;;25.48;82.01;96156.13;5085823;28;20365;-77
2022/08/21 11:18:25;;;;;;;1.92;1.73;;;;;;;25.73;80.33;96157.22;5086503;28;20209;-77
2022/08/21 11:21:03;;;;;;;1.83;1.70;;;;;;;25.68;82.99;96154.63;5075353;28;20204;-75
2022/08/21 11:23:39;;;;;;;1.92;1.50;;;;;;;25.81;80.81;96151.63;5084967;28;20202;-76
2022/08/21 11:26:13;;;;;;;1.95;1.70;;;;;;;25.72;81.59;96150.84;5083769;28;20263;-76
2022/08/21 11:28:51;;;;;;;2.40;2.20;;;;;;;25.97;80.13;96144.41;5071150;28;20264;-76
2022/08/21 11:31:36;;;;;;;1.70;1.52;;;;;;;26.18;77.37;96140.88;5075516;28;20220;-77
2022/08/21 11:34:15;;;;;;;1.55;1.45;;;;;;;26.19;75.92;96132.25;5071258;28;20237;-77
2022/08/21 11:36:53;;;;;;;2.10;1.60;;;;;;;26.00;75.75;96123.56;5085605;28;20217;-77
2022/08/21 11:39:31;;;;;;;2.35;2.15;;;;;;;26.07;77.93;96121.06;5085471;28;20224;-77